Time;durP1;ratioP1;P1;durP2;ratioP2;P2;SDS_P1;SDS_P2;PMS_P1;PMS_P2;Temp;Humidity;BMP_temperature;BMP_pressure;BME280_temperature;BME280_humidity;BME280_pressure;Samples;Min_cycle;Max_cycle;Signal;HPM_P1;HPM_P2
2021/10/07 00:01:44;;;;;;;15.15;13.62;;;;;;;12.08;84.04;97121.45;1836835;75;21074;-82
2021/10/07 00:04:10;;;;;;;15.05;12.80;;;;;;;12.08;84.03;97127.16;1844178;75;21122;-82
2021/10/07 00:06:36;;;;;;;16.67;14.45;;;;;;;12.06;84.10;97123.43;1785755;77;21084;-83
2021/10/07 00:09:04;;;;;;;14.38;12.98;;;;;;;12.05;84.04;97122.30;1816436;77;21059;-83
2021/10/07 00:11:29;;;;;;;14.30;12.80;;;;;;;12.00;84.10;97120.19;1841708;75;21157;-82
2021/10/07 00:13:55;;;;;;;14.38;12.10;;;;;;;11.98;84.22;97126.87;1821980;77;21122;-83
2021/10/07 00:16:21;;;;;;;14.28;12.88;;;;;;;11.97;84.18;97121.84;1826812;76;21102;-83
2021/10/07 00:18:49;;;;;;;13.45;12.05;;;;;;;12.00;84.36;97122.80;1866744;75;21175;-82
2021/10/07 00:21:18;;;;;;;13.45;11.68;;;;;;;12.06;84.43;97126.52;1842469;75;21024;-82
2021/10/07 00:26:27;;;;;;;12.70;10.72;;;;;;;12.09;84.27;97122.27;1821231;75;21511;-83
2021/10/07 00:28:57;;;;;;;12.75;11.08;;;;;;;12.10;84.29;97126.00;1836805;75;21084;-82
2021/10/07 00:31:24;;;;;;;11.40;9.80;;;;;;;12.07;84.21;97126.84;1809931;77;21094;-82
2021/10/07 00:39:05;;;;;;;8.75;7.92;;;;;;;12.10;84.15;97132.52;1828810;77;21528;-82
2021/10/07 00:41:32;;;;;;;9.35;8.40;;;;;;;12.14;84.35;97129.06;1847119;75;21133;-82
2021/10/07 00:44:09;;;;;;;9.65;8.68;;;;;;;12.16;84.40;97125.79;1840253;77;21444;-82
2021/10/07 00:46:58;;;;;;;9.23;7.83;;;;;;;12.15;84.38;97127.59;1822214;77;21225;-82
2021/10/07 00:49:23;;;;;;;8.13;7.20;;;;;;;12.14;84.43;97126.45;1838401;76;21106;-82
2021/10/07 00:51:49;;;;;;;7.97;7.12;;;;;;;12.13;84.22;97132.66;1852808;75;21445;-82
2021/10/07 00:54:17;;;;;;;9.38;8.20;;;;;;;12.13;84.35;97133.47;1803587;75;21043;-82
2021/10/07 00:56:44;;;;;;;10.35;7.85;;;;;;;12.15;84.38;97135.40;1842300;77;21136;-83
2021/10/07 00:59:10;;;;;;;10.28;8.18;;;;;;;12.13;84.40;97130.05;1834014;77;21099;-82
2021/10/07 01:01:38;;;;;;;11.90;8.83;;;;;;;12.10;84.37;97135.61;1838389;77;21043;-82
2021/10/07 01:04:04;;;;;;;8.95;8.05;;;;;;;12.07;84.31;97129.45;1818976;77;21057;-82
2021/10/07 01:06:30;;;;;;;9.03;7.62;;;;;;;12.09;84.47;97129.59;1837401;77;21390;-82
2021/10/07 01:08:58;;;;;;;11.18;7.50;;;;;;;12.11;84.26;97129.41;1788432;79;21521;-82
2021/10/07 01:11:24;;;;;;;8.63;7.72;;;;;;;12.12;84.49;97128.43;1837468;76;21205;-82
2021/10/07 01:13:49;;;;;;;9.80;8.70;;;;;;;12.15;84.49;97124.17;1835747;76;21658;-82
2021/10/07 01:16:18;;;;;;;9.63;8.58;;;;;;;12.17;84.56;97127.41;1787934;79;21072;-82
2021/10/07 01:18:45;;;;;;;12.13;9.15;;;;;;;12.21;84.57;97132.61;1793885;78;21118;-82
2021/10/07 01:21:12;;;;;;;10.58;8.18;;;;;;;12.19;84.34;97130.64;1782061;77;21535;-82
2021/10/07 01:23:39;;;;;;;10.30;9.10;;;;;;;12.17;84.41;97133.42;1812614;78;21072;-83
2021/10/07 01:26:11;;;;;;;9.55;8.10;;;;;;;12.16;84.28;97131.81;1819159;77;21078;-82
2021/10/07 01:28:40;;;;;;;11.15;8.60;;;;;;;12.17;84.33;97136.53;1819218;77;21495;-82
2021/10/07 01:31:06;;;;;;;9.63;8.63;;;;;;;12.18;84.30;97138.14;1817597;78;21186;-82
2021/10/07 01:33:32;;;;;;;10.25;8.90;;;;;;;12.19;84.21;97144.98;1814329;77;21123;-82
2021/10/07 01:35:58;;;;;;;9.25;8.30;;;;;;;12.20;84.31;97144.83;1804165;77;21114;-82
2021/10/07 01:38:24;;;;;;;11.18;9.33;;;;;;;12.16;84.27;97143.53;1805763;77;21054;-82
2021/10/07 01:40:50;;;;;;;8.40;7.35;;;;;;;12.16;84.14;97148.74;1804734;77;21190;-82
2021/10/07 01:43:16;;;;;;;8.20;7.42;;;;;;;12.17;84.28;97150.86;1807404;77;21118;-82
2021/10/07 01:45:41;;;;;;;7.67;6.97;;;;;;;12.22;84.38;97153.77;1799835;77;21099;-82
2021/10/07 01:48:07;;;;;;;8.68;7.87;;;;;;;12.24;84.46;97152.61;1820250;77;21090;-82
2021/10/07 01:50:33;;;;;;;8.03;7.22;;;;;;;12.26;84.42;97152.44;1806455;77;21398;-82
2021/10/07 01:52:59;;;;;;;7.25;6.55;;;;;;;12.27;84.46;97157.47;1809772;78;21150;-82
2021/10/07 01:55:25;;;;;;;8.25;7.30;;;;;;;12.29;84.23;97152.09;1791172;78;21084;-82
2021/10/07 01:57:51;;;;;;;8.15;7.35;;;;;;;12.27;83.91;97154.06;1810338;78;21044;-82
2021/10/07 02:00:17;;;;;;;8.55;7.42;;;;;;;12.27;83.71;97154.06;1816128;77;21126;-82
2021/10/07 02:02:43;;;;;;;8.85;7.12;;;;;;;12.24;83.85;97151.80;1808922;77;22218;-82
2021/10/07 02:05:09;;;;;;;7.55;6.72;;;;;;;12.27;84.06;97146.23;1816425;77;21138;-82
2021/10/07 02:07:35;;;;;;;7.05;5.80;;;;;;;12.28;83.95;97147.86;1809590;77;21147;-82
2021/10/07 02:10:01;;;;;;;6.72;5.97;;;;;;;12.26;83.79;97150.64;1847379;76;21485;-82
2021/10/07 02:12:27;;;;;;;8.10;7.15;;;;;;;12.27;83.95;97154.06;1849837;76;21047;-82
2021/10/07 02:14:52;;;;;;;6.90;6.25;;;;;;;12.28;83.99;97151.28;1850589;76;21009;-82
2021/10/07 02:17:19;;;;;;;8.68;7.03;;;;;;;12.26;83.80;97157.65;1826666;76;21038;-82
2021/10/07 02:19:44;;;;;;;8.40;6.90;;;;;;;12.23;83.97;97152.30;1840604;76;21041;-82
2021/10/07 02:22:11;;;;;;;6.97;6.20;;;;;;;12.22;83.82;97155.89;1836405;76;21123;-82
2021/10/07 02:24:37;;;;;;;6.75;6.15;;;;;;;12.21;83.73;97158.67;1816749;76;21146;-82
2021/10/07 02:27:04;;;;;;;8.38;6.75;;;;;;;12.21;83.82;97161.27;1787095;78;22216;-82
2021/10/07 02:29:30;;;;;;;9.55;7.60;;;;;;;12.21;83.82;97160.78;1807853;78;21079;-82
2021/10/07 02:31:56;;;;;;;7.62;6.92;;;;;;;12.25;84.23;97164.66;1828499;77;21452;-82
2021/10/07 02:34:21;;;;;;;9.10;8.20;;;;;;;12.27;84.16;97157.97;1827836;76;21469;-82
2021/10/07 02:36:47;;;;;;;9.98;8.93;;;;;;;12.27;84.13;97160.08;1819382;76;21055;-82
2021/10/07 02:39:13;;;;;;;9.43;7.78;;;;;;;12.26;84.00;97160.25;1844974;76;21169;-82
2021/10/07 02:41:39;;;;;;;8.53;7.72;;;;;;;12.25;84.11;97163.84;1836876;76;21103;-82
2021/10/07 02:44:05;;;;;;;9.13;8.23;;;;;;;12.28;84.23;97165.61;1838808;76;21008;-82
2021/10/07 02:46:30;;;;;;;9.43;8.13;;;;;;;12.29;84.08;97167.23;1858259;75;21123;-82
2021/10/07 02:48:56;;;;;;;9.43;8.45;;;;;;;12.27;83.91;97171.00;1818254;77;21111;-82
2021/10/07 02:51:22;;;;;;;9.53;8.53;;;;;;;12.23;83.88;97167.93;1781150;78;21144;-82
2021/10/07 02:53:49;;;;;;;8.50;7.62;;;;;;;12.21;83.82;97171.20;1842504;76;21119;-82
2021/10/07 02:56:15;;;;;;;10.63;9.53;;;;;;;12.23;83.71;97175.75;1763741;80;21051;-82
2021/10/07 02:58:41;;;;;;;10.45;9.48;;;;;;;12.27;83.72;97174.91;1765655;80;21007;-82
2021/10/07 03:01:06;;;;;;;11.10;9.85;;;;;;;12.27;83.89;97174.91;1775731;80;21047;-82
2021/10/07 03:03:32;;;;;;;14.35;12.53;;;;;;;12.27;83.90;97183.53;1772755;80;21146;-82
2021/10/07 03:05:58;;;;;;;15.28;13.68;;;;;;;12.26;83.85;97181.91;1798403;78;21035;-82
2021/10/07 03:08:27;;;;;;;13.50;11.97;;;;;;;12.23;83.79;97184.06;1841405;76;21094;-82
2021/10/07 03:10:51;;;;;;;12.68;11.45;;;;;;;12.22;83.84;97187.16;1802985;77;21035;-82
2021/10/07 03:13:17;;;;;;;13.05;11.65;;;;;;;12.25;83.88;97189.91;1783350;77;21109;-82
2021/10/07 03:15:43;;;;;;;12.40;11.10;;;;;;;12.25;83.93;97185.99;1804593;77;21502;-82
2021/10/07 03:18:09;;;;;;;12.98;9.98;;;;;;;12.24;83.92;97183.88;1802754;77;21071;-83
2021/10/07 03:20:35;;;;;;;10.30;9.35;;;;;;;12.23;83.96;97190.08;1809508;77;21406;-82
2021/10/07 03:23:00;;;;;;;9.88;7.95;;;;;;;12.23;83.96;97186.17;1775840;79;21066;-82
2021/10/07 03:25:26;;;;;;;10.00;8.98;;;;;;;12.24;83.92;97190.39;1824997;76;21271;-82
2021/10/07 03:27:52;;;;;;;9.15;8.25;;;;;;;12.25;84.07;97189.41;1854173;77;21066;-82
2021/10/07 03:30:18;;;;;;;10.08;8.95;;;;;;;12.27;84.16;97182.72;1838016;76;21113;-82
2021/10/07 03:32:43;;;;;;;11.18;7.97;;;;;;;12.24;84.12;97183.88;1831076;76;21170;-82
2021/10/07 03:35:09;;;;;;;7.53;6.72;;;;;;;12.23;84.27;97182.75;1776533;78;21082;-83
2021/10/07 03:37:37;;;;;;;7.95;7.15;;;;;;;12.22;84.13;97187.16;1792787;78;21479;-82
2021/10/07 03:40:07;;;;;;;6.90;5.92;;;;;;;12.21;84.01;97186.02;1817063;78;21049;-82
2021/10/07 03:42:34;;;;;;;9.10;7.08;;;;;;;12.19;83.93;97180.96;1800520;78;21118;-82
2021/10/07 03:47:28;;;;;;;8.80;7.12;;;;;;;12.19;84.19;97189.27;1791873;77;21035;-82
2021/10/07 03:49:56;;;;;;;7.33;6.20;;;;;;;12.14;84.09;97183.28;1787403;77;21058;-82
2021/10/07 03:52:24;;;;;;;7.97;5.10;;;;;;;12.14;84.28;97191.09;1852236;76;21026;-82
2021/10/07 03:54:49;;;;;;;5.05;4.55;;;;;;;12.13;84.23;97182.15;1808747;77;21027;-82
2021/10/07 03:57:15;;;;;;;5.80;5.20;;;;;;;12.11;84.25;97190.14;1791969;78;21038;-82
2021/10/07 03:59:41;;;;;;;5.20;4.67;;;;;;;12.11;84.30;97189.33;1812958;78;21507;-82
2021/10/07 04:02:07;;;;;;;5.50;4.92;;;;;;;12.12;84.37;97187.85;1793925;78;21057;-82
2021/10/07 04:04:32;;;;;;;5.90;4.87;;;;;;;12.09;84.35;97188.20;1823418;78;21057;-82
2021/10/07 04:06:58;;;;;;;7.08;5.53;;;;;;;12.07;84.56;97187.56;1793325;77;21145;-82
2021/10/07 04:09:24;;;;;;;10.18;5.20;;;;;;;12.05;84.55;97189.53;1790236;77;21549;-82
2021/10/07 04:11:50;;;;;;;5.97;3.90;;;;;;;12.04;84.60;97189.22;1841825;76;21104;-83
2021/10/07 04:14:16;;;;;;;5.42;3.98;;;;;;;12.03;84.66;97185.77;1854037;76;20984;-82
2021/10/07 04:16:41;;;;;;;6.25;4.85;;;;;;;12.05;84.45;97185.62;1835671;76;21118;-82
2021/10/07 04:19:07;;;;;;;7.50;5.17;;;;;;;12.06;84.56;97185.13;1835240;76;21383;-82
2021/10/07 04:21:33;;;;;;;5.40;4.90;;;;;;;12.04;84.55;97189.22;1838186;76;21397;-82
2021/10/07 04:23:59;;;;;;;5.42;4.67;;;;;;;12.01;84.64;97186.92;1850368;76;21038;-82
2021/10/07 04:26:27;;;;;;;5.55;4.10;;;;;;;11.98;84.81;97191.18;1852944;76;21410;-82
2021/10/07 04:28:53;;;;;;;5.17;4.25;;;;;;;11.98;84.76;97189.39;1841668;76;21090;-82
2021/10/07 04:31:19;;;;;;;4.17;3.62;;;;;;;11.98;84.61;97189.39;1859824;76;20960;-82
2021/10/07 04:33:45;;;;;;;7.33;4.55;;;;;;;11.99;84.70;97189.70;1850215;76;21038;-83
2021/10/07 04:36:11;;;;;;;4.87;4.47;;;;;;;12.02;84.84;97187.25;1808804;76;21039;-82
2021/10/07 04:38:37;;;;;;;7.00;5.42;;;;;;;12.06;84.93;97191.64;1856547;76;21002;-82
2021/10/07 04:41:04;;;;;;;7.28;4.75;;;;;;;12.05;84.76;97192.62;1847346;76;21122;-82
2021/10/07 04:43:29;;;;;;;5.75;4.17;;;;;;;12.01;84.80;97189.04;1832964;75;21398;-82
2021/10/07 04:45:55;;;;;;;6.92;4.33;;;;;;;12.01;84.82;97194.25;1855857;77;21079;-82
2021/10/07 04:50:46;;;;;;;5.65;4.47;;;;;;;12.04;84.77;97194.42;1844096;76;21185;-82
2021/10/07 04:53:12;;;;;;;5.62;4.45;;;;;;;12.02;84.67;97195.87;1844968;76;21066;-82
2021/10/07 04:55:38;;;;;;;5.45;4.42;;;;;;;12.00;84.93;97193.93;1852567;76;21464;-82
2021/10/07 04:58:04;;;;;;;5.15;4.00;;;;;;;11.99;84.75;97201.92;1851913;76;21031;-81
2021/10/07 05:00:30;;;;;;;5.00;4.50;;;;;;;11.97;84.62;97203.39;1855383;76;21043;-82
2021/10/07 05:02:57;;;;;;;6.87;3.80;;;;;;;11.98;84.69;97202.41;1841408;76;21396;-82
2021/10/07 05:05:23;;;;;;;4.60;4.20;;;;;;;12.00;84.66;97204.84;1841314;76;21485;-82
2021/10/07 05:07:48;;;;;;;5.33;4.58;;;;;;;12.00;84.64;97204.84;1844434;76;21096;-82
2021/10/07 05:10:14;;;;;;;10.30;4.83;;;;;;;11.99;84.73;97206.63;1827091;76;21088;-82
2021/10/07 05:12:40;;;;;;;8.05;4.37;;;;;;;11.99;84.81;97212.34;1822996;76;21161;-82
2021/10/07 05:15:08;;;;;;;4.87;4.42;;;;;;;11.97;84.71;97215.11;1798150;77;21078;-82
2021/10/07 05:17:34;;;;;;;7.00;3.22;;;;;;;11.95;84.68;97210.56;1839688;76;21099;-82
2021/10/07 05:20:00;;;;;;;5.08;4.10;;;;;;;11.95;84.68;97222.78;1846294;76;21032;-82
2021/10/07 05:22:26;;;;;;;6.95;4.37;;;;;;;11.95;84.73;97217.57;1850682;76;21524;-82
2021/10/07 05:24:52;;;;;;;5.60;4.22;;;;;;;11.96;84.86;97221.80;1843673;77;21050;-82
2021/10/07 05:27:18;;;;;;;6.17;4.35;;;;;;;11.96;84.93;97227.81;1844896;77;21123;-82
2021/10/07 05:29:44;;;;;;;5.92;4.03;;;;;;;11.92;84.98;97225.23;1843352;77;21446;-82
2021/10/07 05:32:10;;;;;;;5.10;3.77;;;;;;;11.91;85.06;97230.12;1843488;77;21066;-82
2021/10/07 05:37:01;;;;;;;5.20;4.70;;;;;;;11.98;85.12;97227.64;1779861;79;21087;-82
2021/10/07 05:39:27;;;;;;;7.58;4.65;;;;;;;12.06;85.15;97230.72;1747988;79;21071;-82
2021/10/07 05:41:53;;;;;;;5.78;4.60;;;;;;;12.08;84.99;97235.27;1800185;76;21056;-82
2021/10/07 05:44:18;;;;;;;5.70;4.90;;;;;;;12.11;85.24;97233.61;1835602;76;21504;-82
2021/10/07 05:46:44;;;;;;;6.17;4.00;;;;;;;12.18;85.24;97239.27;1817033;77;21182;-82
2021/10/07 05:49:10;;;;;;;3.87;3.58;;;;;;;12.21;85.01;97240.74;1791822;78;21081;-82
2021/10/07 05:51:36;;;;;;;4.87;4.42;;;;;;;12.22;84.89;97241.87;1769957;79;21090;-82
2021/10/07 05:54:02;;;;;;;5.20;4.53;;;;;;;12.16;84.63;97242.53;1788004;77;21501;-82
2021/10/07 05:56:27;;;;;;;5.97;5.37;;;;;;;12.23;85.25;97240.08;1830958;77;21107;-82
2021/10/07 05:58:53;;;;;;;5.22;4.37;;;;;;;12.27;85.35;97246.06;1853218;75;21081;-83
2021/10/07 06:01:19;;;;;;;7.03;5.12;;;;;;;12.29;85.00;97238.89;1796693;79;21472;-82
2021/10/07 06:03:44;;;;;;;4.70;4.30;;;;;;;12.32;84.99;97241.64;1823954;76;21127;-82
2021/10/07 06:06:10;;;;;;;5.37;4.87;;;;;;;12.36;85.02;97244.70;1828697;76;21099;-82
2021/10/07 06:08:36;;;;;;;5.37;4.55;;;;;;;12.39;85.03;97241.29;1825719;75;21068;-82
2021/10/07 06:11:03;;;;;;;6.70;6.03;;;;;;;12.42;85.09;97242.24;1809735;77;21385;-82
2021/10/07 06:13:29;;;;;;;7.58;6.83;;;;;;;12.45;85.17;97243.69;1849382;76;21082;-82
2021/10/07 06:15:55;;;;;;;6.30;5.58;;;;;;;12.44;85.02;97250.70;1838181;76;21039;-82
2021/10/07 06:18:21;;;;;;;6.00;4.92;;;;;;;12.43;84.97;97247.77;1832266;75;21059;-83
2021/10/07 06:20:47;;;;;;;6.10;5.60;;;;;;;12.50;84.91;97247.89;1790000;78;21488;-82
2021/10/07 06:23:12;;;;;;;6.03;5.40;;;;;;;12.55;84.71;97246.41;1788940;77;21189;-82
2021/10/07 06:25:38;;;;;;;6.00;5.40;;;;;;;12.58;84.70;97244.75;1831428;76;21143;-82
2021/10/07 06:28:05;;;;;;;7.65;6.42;;;;;;;12.63;84.95;97244.22;1827296;76;21422;-82
2021/10/07 06:30:33;;;;;;;6.10;4.78;;;;;;;12.69;85.17;97246.16;1834384;75;21044;-82
2021/10/07 06:32:59;;;;;;;8.28;6.87;;;;;;;12.77;85.07;97242.66;1832203;75;21043;-82
2021/10/07 06:35:26;;;;;;;10.28;9.15;;;;;;;12.80;85.03;97240.52;1837661;75;21468;-82
2021/10/07 06:37:52;;;;;;;9.65;8.25;;;;;;;12.86;84.89;97249.45;1841364;76;21090;-82
2021/10/07 06:40:18;;;;;;;9.70;8.70;;;;;;;12.91;84.95;97251.04;1855995;75;21031;-82
2021/10/07 06:42:44;;;;;;;10.18;9.05;;;;;;;12.93;85.00;97248.56;1816304;78;21374;-82
2021/10/07 06:45:10;;;;;;;14.87;10.30;;;;;;;12.96;85.03;97245.28;1870545;75;21007;-82
2021/10/07 06:47:37;;;;;;;10.98;9.88;;;;;;;12.98;84.95;97248.53;1811897;78;21405;-82
2021/10/07 06:50:05;;;;;;;10.38;9.25;;;;;;;12.98;84.89;97252.44;1843484;77;21090;-82
2021/10/07 06:52:31;;;;;;;11.48;10.30;;;;;;;13.00;84.96;97249.97;1852010;77;21577;-82
2021/10/07 06:54:58;;;;;;;11.25;9.85;;;;;;;13.03;85.16;97255.36;1836738;77;21057;-82
2021/10/07 06:57:24;;;;;;;12.10;10.90;;;;;;;13.10;85.34;97261.48;1850941;77;21130;-82
2021/10/07 06:59:49;;;;;;;12.33;11.03;;;;;;;13.12;85.32;97256.40;1841826;77;21119;-82
2021/10/07 07:02:17;;;;;;;12.07;10.43;;;;;;;13.16;85.58;97264.19;1782369;77;21168;-82
2021/10/07 07:04:42;;;;;;;10.93;9.73;;;;;;;13.17;85.30;97267.61;1792816;77;21119;-82
2021/10/07 07:07:09;;;;;;;11.28;10.08;;;;;;;13.19;85.05;97269.61;1848527;77;21074;-82
2021/10/07 07:09:34;;;;;;;11.63;10.32;;;;;;;13.19;84.91;97273.02;1841207;77;21057;-82
2021/10/07 07:12:00;;;;;;;14.80;12.23;;;;;;;13.21;85.14;97272.35;1841848;77;20983;-82
2021/10/07 07:14:26;;;;;;;15.65;13.22;;;;;;;13.17;84.74;97274.94;1861410;75;21507;-82
2021/10/07 07:16:52;;;;;;;14.38;12.30;;;;;;;13.16;85.09;97281.15;1845034;77;21118;-82
2021/10/07 07:19:18;;;;;;;11.68;10.58;;;;;;;13.19;84.95;97285.26;1833299;76;21127;-82
2021/10/07 07:21:43;;;;;;;11.43;10.03;;;;;;;13.20;84.49;97288.19;1845405;77;21524;-82
2021/10/07 07:24:09;;;;;;;12.68;10.48;;;;;;;13.18;84.12;97284.95;1837186;77;21159;-83
2021/10/07 07:26:36;;;;;;;11.97;10.72;;;;;;;13.21;84.70;97286.70;1853829;76;21027;-82
2021/10/07 07:29:03;;;;;;;13.93;11.73;;;;;;;13.20;84.39;97286.88;1844453;77;20968;-82
2021/10/07 07:31:29;;;;;;;12.70;10.88;;;;;;;13.16;84.58;97290.28;1843448;77;21378;-82
2021/10/07 07:33:55;;;;;;;13.25;10.93;;;;;;;13.14;84.77;97283.62;1847997;77;21426;-82
2021/10/07 07:36:24;;;;;;;12.88;11.12;;;;;;;13.15;84.52;97289.16;1848742;77;21059;-82
2021/10/07 07:38:50;;;;;;;14.87;12.10;;;;;;;13.15;84.98;97289.97;1839842;77;21485;-82
2021/10/07 07:41:16;;;;;;;13.43;10.53;;;;;;;13.12;85.07;97287.71;1846886;77;21126;-83
2021/10/07 07:43:42;;;;;;;12.98;11.18;;;;;;;13.06;84.79;97297.55;1847722;78;21081;-82
2021/10/07 07:46:08;;;;;;;12.98;10.72;;;;;;;13.03;85.01;97296.61;1843928;77;21099;-82
2021/10/07 07:48:34;;;;;;;15.15;11.03;;;;;;;12.95;84.70;97292.73;1847201;76;21031;-82
2021/10/07 07:51:01;;;;;;;13.90;10.75;;;;;;;12.91;84.62;97295.37;1833391;77;20995;-82
2021/10/07 07:53:27;;;;;;;14.50;11.05;;;;;;;12.94;84.78;97302.85;1845239;77;21046;-83
2021/10/07 07:55:53;;;;;;;14.10;11.50;;;;;;;12.92;84.83;97300.91;1839393;77;21090;-82
2021/10/07 07:58:19;;;;;;;14.75;11.50;;;;;;;12.88;85.09;97306.17;1838114;77;21050;-82
2021/10/07 08:00:46;;;;;;;12.80;10.18;;;;;;;12.90;85.83;97306.80;1849161;77;21400;-82
2021/10/07 08:03:12;;;;;;;14.13;9.73;;;;;;;12.92;85.56;97305.64;1839004;77;21060;-82
2021/10/07 08:05:38;;;;;;;10.68;9.18;;;;;;;12.98;85.23;97317.16;1844823;77;21444;-82
2021/10/07 08:08:04;;;;;;;12.28;9.53;;;;;;;13.02;85.36;97318.47;1845185;77;21094;-82
2021/10/07 08:10:30;;;;;;;13.88;9.35;;;;;;;13.02;85.14;97319.77;1849572;77;21425;-82
2021/10/07 08:12:56;;;;;;;12.20;10.05;;;;;;;13.03;85.05;97315.36;1835746;77;21065;-82
2021/10/07 08:15:21;;;;;;;13.43;11.10;;;;;;;13.03;85.10;97317.48;1851126;75;21058;-82
2021/10/07 08:17:47;;;;;;;12.10;10.32;;;;;;;13.01;85.10;97324.64;1833596;76;21035;-82
2021/10/07 08:20:14;;;;;;;13.13;10.20;;;;;;;13.02;85.32;97327.59;1843549;77;21062;-82
2021/10/07 08:22:40;;;;;;;13.75;9.58;;;;;;;13.06;85.57;97332.78;1847259;77;21050;-82
2021/10/07 08:25:09;;;;;;;12.40;9.93;;;;;;;12.99;84.33;97327.11;1842526;77;21039;-82
2021/10/07 08:27:37;;;;;;;12.18;10.48;;;;;;;13.02;84.81;97331.51;1845402;77;21070;-82
2021/10/07 08:30:08;;;;;;;15.20;11.68;;;;;;;13.11;85.74;97330.45;1841092;76;21094;-82
2021/10/07 08:32:34;;;;;;;13.30;11.10;;;;;;;13.16;84.92;97328.61;1845602;77;21019;-82
2021/10/07 08:34:59;;;;;;;13.68;10.40;;;;;;;13.18;85.35;97335.34;1783895;79;21491;-82
2021/10/07 08:37:25;;;;;;;11.65;10.43;;;;;;;13.21;85.10;97333.68;1844517;77;21587;-83
2021/10/07 08:39:51;;;;;;;12.58;10.85;;;;;;;13.29;85.41;97332.79;1839114;77;21437;-82
2021/10/07 08:42:17;;;;;;;14.25;11.65;;;;;;;13.34;85.16;97330.95;1845585;77;21055;-82
2021/10/07 08:44:43;;;;;;;13.40;11.60;;;;;;;13.35;84.73;97332.11;1791521;78;21000;-82
2021/10/07 08:47:09;;;;;;;16.65;12.82;;;;;;;13.32;84.31;97329.02;1840825;77;21408;-82
2021/10/07 08:49:39;;;;;;;14.13;11.50;;;;;;;13.27;84.43;97330.04;1847999;77;21046;-82
2021/10/07 08:52:06;;;;;;;13.50;12.13;;;;;;;13.29;84.32;97333.28;1840895;76;21047;-82
2021/10/07 08:54:34;;;;;;;14.83;12.43;;;;;;;13.35;84.83;97336.02;1832174;77;21045;-82
2021/10/07 08:57:05;;;;;;;14.45;11.93;;;;;;;13.41;84.55;97332.70;1818832;77;21087;-82
2021/10/07 08:59:31;;;;;;;15.03;13.40;;;;;;;13.47;84.91;97329.87;1829938;76;21079;-83
2021/10/07 09:02:01;;;;;;;15.18;13.10;;;;;;;13.45;84.38;97330.54;1818717;75;21114;-82
2021/10/07 09:04:35;;;;;;;15.70;14.07;;;;;;;13.39;83.99;97328.15;1812972;76;21094;-82
2021/10/07 09:07:08;;;;;;;18.45;13.93;;;;;;;13.34;83.81;97330.48;1839394;75;21425;-82
2021/10/07 09:09:36;;;;;;;16.27;13.28;;;;;;;13.38;84.15;97330.94;1835053;77;21062;-82
2021/10/07 09:12:05;;;;;;;18.95;14.78;;;;;;;13.44;84.09;97332.34;1827544;77;21485;-82
2021/10/07 09:14:37;;;;;;;17.10;15.10;;;;;;;13.42;84.22;97336.12;1837806;77;21053;-82
2021/10/07 09:17:04;;;;;;;20.75;16.93;;;;;;;13.39;84.21;97332.56;1826262;77;21118;-82
2021/10/07 09:19:36;;;;;;;19.32;16.45;;;;;;;13.38;84.09;97336.97;1834950;77;21038;-82
2021/10/07 09:22:26;;;;;;;18.82;16.85;;;;;;;13.39;84.36;97335.98;1795360;77;21484;-83
2021/10/07 09:24:57;;;;;;;25.60;19.92;;;;;;;13.39;84.96;97333.86;1823242;77;21098;-83
2021/10/07 09:27:30;;;;;;;22.65;18.98;;;;;;;13.40;84.80;97338.09;1825760;77;21860;-82
2021/10/07 09:30:11;;;;;;;25.62;21.02;;;;;;;13.45;85.08;97333.96;1823488;77;21051;-83
2021/10/07 09:32:43;;;;;;;20.57;17.43;;;;;;;13.45;84.95;97333.96;1844669;77;21026;-82
2021/10/07 09:35:10;;;;;;;25.08;20.82;;;;;;;13.46;84.73;97339.50;1834257;77;21155;-82
2021/10/07 09:37:43;;;;;;;26.00;21.62;;;;;;;13.43;85.06;97335.13;1837428;76;21487;-83
2021/10/07 09:40:18;;;;;;;25.77;19.73;;;;;;;13.50;85.41;97337.34;1842420;75;21058;-82
2021/10/07 09:42:47;;;;;;;17.35;14.85;;;;;;;13.56;84.63;97339.76;1789961;79;21425;-82
2021/10/07 09:45:17;;;;;;;26.82;20.90;;;;;;;13.59;84.97;97332.87;1810919;77;21126;-83
2021/10/07 09:50:29;;;;;;;24.72;20.37;;;;;;;13.60;85.24;97335.30;1756640;79;21075;-83
2021/10/07 09:53:09;;;;;;;26.07;20.57;;;;;;;13.65;85.36;97339.48;1758948;78;21083;-83
2021/10/07 09:55:38;;;;;;;26.52;21.12;;;;;;;13.62;84.53;97342.46;1796874;78;21117;-82
2021/10/07 09:58:07;;;;;;;26.57;22.20;;;;;;;13.64;85.00;97344.89;1765539;78;21190;-83
2021/10/07 10:00:35;;;;;;;24.98;20.12;;;;;;;13.66;84.66;97343.72;1780954;78;21045;-83
2021/10/07 10:03:01;;;;;;;27.90;22.60;;;;;;;13.67;84.69;97336.73;1813991;77;21051;-83
2021/10/07 10:05:29;;;;;;;26.10;20.27;;;;;;;13.69;85.34;97339.47;1788863;77;21112;-83
2021/10/07 10:07:55;;;;;;;23.47;19.20;;;;;;;13.76;85.25;97342.17;1794209;78;21172;-83
2021/10/07 10:10:21;;;;;;;24.85;19.95;;;;;;;13.77;84.93;97332.85;1799106;78;21236;-83
2021/10/07 10:12:46;;;;;;;22.37;18.73;;;;;;;13.85;84.67;97335.08;1787635;78;21134;-82
2021/10/07 10:15:14;;;;;;;26.05;21.60;;;;;;;13.89;84.39;97338.45;1777758;78;21086;-83
2021/10/07 10:17:40;;;;;;;26.07;20.90;;;;;;;13.93;84.41;97340.21;1755155;79;21080;-83
2021/10/07 10:20:21;;;;;;;29.40;24.55;;;;;;;13.88;84.05;97342.56;1770008;78;21516;-83
2021/10/07 10:23:01;;;;;;;28.10;22.50;;;;;;;13.85;84.62;97341.61;1795822;77;21080;-83
2021/10/07 10:25:30;;;;;;;27.82;22.30;;;;;;;13.83;84.19;97339.19;1832222;77;21005;-83
2021/10/07 10:28:03;;;;;;;29.72;23.25;;;;;;;13.88;84.45;97346.48;1833218;77;21074;-82
2021/10/07 10:30:46;;;;;;;31.33;24.15;;;;;;;13.94;84.55;97341.83;1811494;77;21161;-83
2021/10/07 10:33:32;;;;;;;30.10;22.58;;;;;;;13.89;84.08;97344.17;1800182;77;21043;-83
2021/10/07 10:35:57;;;;;;;28.87;23.38;;;;;;;13.89;84.73;97344.98;1810128;77;21114;-83
2021/10/07 10:38:24;;;;;;;29.95;21.93;;;;;;;13.90;84.78;97343.19;1815827;77;21417;-82
2021/10/07 10:40:49;;;;;;;27.90;20.23;;;;;;;13.85;84.42;97344.23;1795552;78;21489;-82
2021/10/07 10:43:23;;;;;;;27.70;22.07;;;;;;;13.88;84.90;97336.03;1824621;77;21077;-83
2021/10/07 10:46:00;;;;;;;28.52;23.27;;;;;;;13.94;84.90;97345.25;1816285;78;21024;-83
2021/10/07 10:48:49;;;;;;;31.30;23.02;;;;;;;13.99;84.75;97348.63;1816055;78;21119;-83
2021/10/07 10:51:18;;;;;;;29.45;23.25;;;;;;;14.00;84.65;97352.89;1815780;77;21098;-83
2021/10/07 10:54:04;;;;;;;32.33;23.15;;;;;;;14.02;84.32;97356.13;1814344;77;21058;-82
2021/10/07 10:56:33;;;;;;;27.58;22.52;;;;;;;14.06;84.33;97361.31;1767728;80;21093;-83
2021/10/07 11:01:37;;;;;;;32.05;22.32;;;;;;;14.31;84.57;97362.64;1808489;77;21015;-83
2021/10/07 11:04:10;;;;;;;24.18;19.37;;;;;;;14.47;83.61;97358.25;1831028;77;21457;-83
2021/10/07 11:07:15;;;;;;;27.70;21.10;;;;;;;14.44;82.18;97359.92;1834316;76;21119;-82
2021/10/07 11:10:07;;;;;;;25.68;20.08;;;;;;;14.41;83.16;97360.58;1826956;77;21085;-83
2021/10/07 11:12:43;;;;;;;27.35;21.57;;;;;;;14.42;82.89;97361.39;1773025;77;21166;-83
2021/10/07 11:15:10;;;;;;;25.97;21.95;;;;;;;14.45;82.19;97347.16;1761251;78;21453;-83
2021/10/07 11:17:41;;;;;;;24.60;20.25;;;;;;;14.62;83.02;97344.16;1826650;77;21090;-83
2021/10/07 11:20:10;;;;;;;24.25;18.67;;;;;;;14.78;82.98;97344.44;1804948;78;21096;-83
2021/10/07 11:22:35;;;;;;;24.47;19.65;;;;;;;14.82;82.09;97340.98;1818261;78;21043;-83
2021/10/07 11:25:01;;;;;;;25.68;19.85;;;;;;;14.90;81.81;97338.23;1805191;77;21149;-83
2021/10/07 11:27:38;;;;;;;22.30;18.12;;;;;;;15.00;82.33;97335.64;1811934;78;21117;-83
2021/10/07 11:30:08;;;;;;;24.75;20.65;;;;;;;15.16;82.83;97337.70;1810333;77;21142;-83
2021/10/07 11:32:35;;;;;;;26.33;19.73;;;;;;;15.20;81.92;97334.52;1794914;77;21484;-83
2021/10/07 11:35:07;;;;;;;25.20;21.35;;;;;;;15.30;81.86;97332.91;1808057;76;21103;-83
2021/10/07 11:37:53;;;;;;;29.07;22.37;;;;;;;15.28;81.11;97333.06;1781682;78;21063;-83
2021/10/07 11:42:51;;;;;;;26.25;21.48;;;;;;;15.50;80.55;97334.37;1828298;77;21039;-83
2021/10/07 11:45:20;;;;;;;26.42;20.60;;;;;;;15.60;79.32;97338.30;1799792;76;21061;-83
2021/10/07 11:47:46;;;;;;;25.52;20.62;;;;;;;15.56;79.43;97337.03;1831331;76;21113;-83
2021/10/07 11:50:14;;;;;;;22.62;19.32;;;;;;;15.42;78.84;97339.23;1833774;76;21178;-83